Time,TemperatureF,DewpointF,PressureIn,WindDirection,WindDirectionDegrees,WindSpeedMPH,WindSpeedGustMPH,Humidity,HourlyPrecipIn,Conditions,Clouds,dailyrainin,SoftwareType,DateUTC
2016-07-28 00:01:00,79.0,68.4,29.91,West,262,0.0,0.0,70,0.00,,,0.00,meteohub,2016-07-28 04:01:00,
2016-07-28 00:06:00,78.8,68.2,29.91,West,262,0.0,0.0,70,0.00,,,0.00,meteohub,2016-07-28 04:06:00,
2016-07-28 00:11:00,78.6,68.0,29.90,West,262,0.0,0.0,70,0.00,,,0.00,meteohub,2016-07-28 04:11:00,
2016-07-28 00:17:00,78.6,68.0,29.90,West,262,0.0,0.0,70,0.00,,,0.00,meteohub,2016-07-28 04:17:00,
2016-07-28 00:22:00,78.4,68.2,29.90,West,262,0.0,0.0,71,0.00,,,0.00,meteohub,2016-07-28 04:22:00,
2016-07-28 00:27:00,78.4,68.2,29.90,West,262,0.0,0.0,71,0.00,,,0.00,meteohub,2016-07-28 04:27:00,
2016-07-28 00:32:00,78.3,68.5,29.90,West,262,0.0,0.0,72,0.00,,,0.00,meteohub,2016-07-28 04:32:00,
2016-07-28 00:37:00,78.3,68.0,29.89,West,262,0.0,0.0,71,0.00,,,0.00,meteohub,2016-07-28 04:37:00,
2016-07-28 00:42:00,78.3,68.0,29.89,West,262,0.0,0.0,71,0.00,,,0.00,meteohub,2016-07-28 04:42:00,
2016-07-28 00:48:00,78.3,67.6,29.89,West,262,0.0,0.0,70,0.00,,,0.00,meteohub,2016-07-28 04:48:00,
2016-07-28 00:58:00,78.3,68.5,29.89,West,262,0.0,0.0,72,0.00,,,0.00,meteohub,2016-07-28 04:58:00,
2016-07-28 01:03:00,78.3,68.5,29.89,West,262,0.0,0.0,72,0.00,,,0.00,meteohub,2016-07-28 05:03:00,
2016-07-28 01:08:00,78.1,67.8,29.89,West,262,0.0,0.0,71,0.00,,,0.00,meteohub,2016-07-28 05:08:00,
2016-07-28 01:14:00,78.1,68.7,29.89,West,262,0.0,0.0,73,0.00,,,0.00,meteohub,2016-07-28 05:14:00,
2016-07-28 01:19:00,77.7,68.4,29.88,West,262,0.0,0.0,73,0.00,,,0.00,meteohub,2016-07-28 05:19:00,
2016-07-28 01:24:00,77.7,68.0,29.88,West,262,0.0,0.0,72,0.00,,,0.00,meteohub,2016-07-28 05:24:00,
2016-07-28 01:29:00,77.5,67.8,29.88,West,262,0.0,0.0,72,0.00,,,0.00,meteohub,2016-07-28 05:29:00,
2016-07-28 01:34:00,77.7,68.7,29.89,West,262,0.0,0.0,74,0.00,,,0.00,meteohub,2016-07-28 05:34:00,
2016-07-28 01:40:00,77.5,68.2,29.88,West,262,0.0,0.0,73,0.00,,,0.00,meteohub,2016-07-28 05:40:00,
2016-07-28 01:45:00,77.5,68.5,29.88,West,262,0.0,0.0,74,0.00,,,0.00,meteohub,2016-07-28 05:45:00,
2016-07-28 01:50:00,77.4,68.4,29.88,West,262,0.0,0.0,74,0.00,,,0.00,meteohub,2016-07-28 05:50:00,
2016-07-28 01:55:00,77.4,68.4,29.88,West,262,0.0,0.0,74,0.00,,,0.00,meteohub,2016-07-28 05:55:00,
2016-07-28 02:00:00,77.4,68.9,29.88,West,262,0.0,0.0,75,0.00,,,0.00,meteohub,2016-07-28 06:00:00,
2016-07-28 02:06:00,77.4,68.9,29.88,West,262,0.0,0.0,75,0.00,,,0.00,meteohub,2016-07-28 06:06:00,
2016-07-28 02:11:00,77.4,68.9,29.88,West,262,0.0,0.0,75,0.00,,,0.00,meteohub,2016-07-28 06:11:00,
2016-07-28 02:16:00,77.4,68.9,29.88,West,262,0.0,0.0,75,0.00,,,0.00,meteohub,2016-07-28 06:16:00,
2016-07-28 02:21:00,77.0,68.9,29.88,West,262,0.0,0.0,76,0.00,,,0.00,meteohub,2016-07-28 06:21:00,
2016-07-28 02:26:00,76.8,68.7,29.88,West,262,0.0,0.0,76,0.00,,,0.00,meteohub,2016-07-28 06:26:00,
2016-07-28 02:31:00,76.6,68.9,29.88,West,262,0.0,0.0,77,0.00,,,0.00,meteohub,2016-07-28 06:31:00,
2016-07-28 02:37:00,76.6,68.9,29.87,West,262,0.0,0.0,77,0.00,,,0.00,meteohub,2016-07-28 06:37:00,
2016-07-28 02:42:00,76.6,68.9,29.87,West,262,0.0,0.0,77,0.00,,,0.00,meteohub,2016-07-28 06:42:00,
2016-07-28 02:47:00,76.5,68.7,29.87,West,262,0.0,0.0,77,0.00,,,0.00,meteohub,2016-07-28 06:47:00,
2016-07-28 02:52:00,76.5,69.1,29.87,West,262,0.0,0.0,78,0.00,,,0.00,meteohub,2016-07-28 06:52:00,
2016-07-28 02:57:00,76.3,69.3,29.86,West,262,0.0,0.0,79,0.00,,,0.00,meteohub,2016-07-28 06:57:00,
2016-07-28 03:02:00,76.3,69.3,29.86,West,262,0.0,0.0,79,0.00,,,0.00,meteohub,2016-07-28 07:02:00,
2016-07-28 03:08:00,75.9,69.3,29.86,West,262,0.0,0.0,80,0.00,,,0.00,meteohub,2016-07-28 07:08:00,
2016-07-28 03:13:00,75.9,69.6,29.86,West,262,0.0,0.0,81,0.00,,,0.00,meteohub,2016-07-28 07:13:00,
2016-07-28 03:18:00,75.7,69.4,29.86,West,262,0.0,0.0,81,0.00,,,0.00,meteohub,2016-07-28 07:18:00,
2016-07-28 03:23:00,75.6,69.6,29.86,West,262,0.0,0.0,82,0.00,,,0.00,meteohub,2016-07-28 07:23:00,
2016-07-28 03:28:00,75.6,69.6,29.86,West,262,0.0,0.0,82,0.00,,,0.00,meteohub,2016-07-28 07:28:00,
2016-07-28 03:33:00,75.4,69.4,29.86,West,262,0.0,0.0,82,0.00,,,0.00,meteohub,2016-07-28 07:33:00,
2016-07-28 03:39:00,75.4,69.4,29.86,West,262,0.0,0.0,82,0.00,,,0.00,meteohub,2016-07-28 07:39:00,
2016-07-28 03:44:00,75.2,69.6,29.85,West,262,0.0,0.0,83,0.00,,,0.00,meteohub,2016-07-28 07:44:00,
2016-07-28 03:49:00,75.0,69.1,29.85,West,262,0.0,0.0,82,0.00,,,0.00,meteohub,2016-07-28 07:49:00,
2016-07-28 03:54:00,75.0,69.4,29.85,West,262,0.0,0.0,83,0.00,,,0.00,meteohub,2016-07-28 07:54:00,
2016-07-28 03:59:00,74.8,69.3,29.85,West,262,0.0,0.0,83,0.00,,,0.00,meteohub,2016-07-28 07:59:00,
2016-07-28 04:04:00,74.8,69.3,29.85,West,262,0.0,0.0,83,0.00,,,0.00,meteohub,2016-07-28 08:04:00,
2016-07-28 04:10:00,74.8,68.9,29.85,West,262,0.0,0.0,82,0.00,,,0.00,meteohub,2016-07-28 08:10:00,
2016-07-28 04:15:00,74.8,68.9,29.85,West,262,0.0,0.0,82,0.00,,,0.00,meteohub,2016-07-28 08:15:00,
2016-07-28 04:20:00,74.8,67.5,29.85,West,262,0.0,0.0,78,0.00,,,0.00,meteohub,2016-07-28 08:20:00,
2016-07-28 04:25:00,75.0,68.7,29.84,West,262,0.0,0.0,81,0.00,,,0.00,meteohub,2016-07-28 08:25:00,
2016-07-28 04:30:00,75.0,68.0,29.84,West,262,0.0,0.0,79,0.00,,,0.00,meteohub,2016-07-28 08:30:00,
2016-07-28 04:36:00,75.0,67.3,29.84,West,262,0.0,0.0,77,0.00,,,0.00,meteohub,2016-07-28 08:36:00,
2016-07-28 04:41:00,74.8,66.7,29.84,West,262,0.0,0.0,76,0.00,,,0.00,meteohub,2016-07-28 08:41:00,
2016-07-28 04:46:00,74.8,66.4,29.84,West,262,0.0,0.0,75,0.00,,,0.00,meteohub,2016-07-28 08:46:00,
2016-07-28 04:51:00,75.0,66.2,29.84,West,262,0.0,0.0,74,0.00,,,0.00,meteohub,2016-07-28 08:51:00,
2016-07-28 04:56:00,75.2,65.5,29.84,West,262,0.0,0.0,72,0.00,,,0.00,meteohub,2016-07-28 08:56:00,
2016-07-28 05:01:00,75.4,67.3,29.84,West,262,0.0,0.0,76,0.00,,,0.00,meteohub,2016-07-28 09:01:00,
2016-07-28 05:07:00,75.4,67.6,29.84,West,262,0.0,0.0,77,0.00,,,0.00,meteohub,2016-07-28 09:07:00,
2016-07-28 05:12:00,75.0,66.9,29.85,West,262,0.0,0.0,76,0.00,,,0.00,meteohub,2016-07-28 09:12:00,
2016-07-28 05:17:00,74.8,67.1,29.84,West,261,1.0,0.0,77,0.00,,,0.00,meteohub,2016-07-28 09:17:00,
2016-07-28 05:22:00,74.7,67.6,29.85,South,186,2.0,3.0,79,0.00,,,0.00,meteohub,2016-07-28 09:22:00,
2016-07-28 05:27:00,74.5,67.5,29.85,SSW,205,2.0,5.0,79,0.00,,,0.00,meteohub,2016-07-28 09:27:00,
2016-07-28 05:33:00,74.5,67.5,29.85,SSW,205,1.0,5.0,79,0.00,,,0.00,meteohub,2016-07-28 09:33:00,
2016-07-28 05:38:00,74.3,67.3,29.85,SSW,205,0.0,5.0,79,0.00,,,0.00,meteohub,2016-07-28 09:38:00,
2016-07-28 05:43:00,74.3,67.6,29.85,SSW,205,1.0,3.0,80,0.00,,,0.00,meteohub,2016-07-28 09:43:00,
2016-07-28 05:48:00,74.3,67.6,29.85,SSW,205,1.0,2.0,80,0.00,,,0.00,meteohub,2016-07-28 09:48:00,
2016-07-28 05:53:00,74.3,67.6,29.85,SSW,205,1.0,2.0,80,0.00,,,0.00,meteohub,2016-07-28 09:53:00,
2016-07-28 05:58:00,74.1,68.0,29.85,South,185,2.0,2.0,81,0.00,,,0.00,meteohub,2016-07-28 09:58:00,
2016-07-28 06:04:00,74.1,68.0,29.85,SSW,203,1.0,4.0,81,0.00,,,0.00,meteohub,2016-07-28 10:04:00,
2016-07-28 06:09:00,73.9,68.2,29.84,WSW,250,0.0,4.0,82,0.00,,,0.00,meteohub,2016-07-28 10:09:00,
2016-07-28 06:14:00,73.9,68.2,29.84,WSW,258,1.0,4.0,82,0.00,,,0.00,meteohub,2016-07-28 10:14:00,
2016-07-28 06:19:00,73.9,68.2,29.84,WSW,252,2.0,3.0,82,0.00,,,0.00,meteohub,2016-07-28 10:19:00,
2016-07-28 06:24:00,73.9,68.2,29.85,SW,236,3.0,3.0,82,0.00,,,0.00,meteohub,2016-07-28 10:24:00,
2016-07-28 06:29:00,73.8,68.4,29.86,SW,222,2.0,4.0,83,0.00,,,0.00,meteohub,2016-07-28 10:29:00,